Time;durP1;ratioP1;P1;durP2;ratioP2;P2;SDS_P1;SDS_P2;PMS_P1;PMS_P2;Temp;Humidity;BMP_temperature;BMP_pressure;BME280_temperature;BME280_humidity;BME280_pressure;Samples;Min_cycle;Max_cycle;Signal;HPM_P1;HPM_P2
2021/01/05 00:00:12;;;;;;;44.07;17.80;;;-1.20;99.90;;;;;;4922909;29;20036;-90
2021/01/05 00:02:39;;;;;;;42.10;16.57;;;-1.20;99.90;;;;;;4922201;29;20048;-90
2021/01/05 00:05:08;;;;;;;43.27;19.07;;;-1.20;99.90;;;;;;4913284;29;20060;-92
2021/01/05 00:07:34;;;;;;;40.40;17.70;;;-1.10;99.90;;;;;;4898641;29;20152;-91
2021/01/05 00:09:59;;;;;;;42.90;18.47;;;-1.10;99.90;;;;;;4916284;29;20048;-91
2021/01/05 00:12:27;;;;;;;38.60;16.97;;;-1.10;99.90;;;;;;4921790;29;20032;-93
2021/01/05 00:14:52;;;;;;;37.13;17.77;;;-1.10;99.90;;;;;;4905830;29;20068;-90
2021/01/05 00:17:20;;;;;;;42.33;17.90;;;-1.10;99.90;;;;;;4911565;29;20130;-89
2021/01/05 00:19:47;;;;;;;39.67;17.27;;;-1.10;99.90;;;;;;4910253;29;20099;-90
2021/01/05 00:22:19;;;;;;;38.10;17.33;;;-1.00;99.90;;;;;;4908716;29;20036;-90
2021/01/05 00:24:45;;;;;;;41.90;16.67;;;-1.00;99.90;;;;;;4910258;29;20123;-89
2021/01/05 00:27:11;;;;;;;36.40;17.73;;;-1.00;99.90;;;;;;4910434;29;20064;-91
2021/01/05 00:29:37;;;;;;;39.93;17.13;;;-1.00;99.90;;;;;;4914564;29;20126;-92
2021/01/05 00:32:15;;;;;;;49.87;21.10;;;-1.00;99.90;;;;;;4940694;29;20024;-90
2021/01/05 00:34:42;;;;;;;38.50;17.67;;;-1.00;99.90;;;;;;4938484;29;20081;-88
2021/01/05 00:37:09;;;;;;;36.37;18.57;;;-1.00;99.90;;;;;;4929463;29;20032;-90
2021/01/05 00:39:35;;;;;;;40.40;18.60;;;-1.00;99.90;;;;;;4911950;29;20039;-91
2021/01/05 00:42:01;;;;;;;38.70;17.37;;;-1.00;99.90;;;;;;4909586;29;20047;-91
2021/01/05 00:44:26;;;;;;;37.33;18.30;;;-1.00;99.90;;;;;;4908162;29;20024;-89
2021/01/05 00:46:52;;;;;;;35.83;15.73;;;-1.00;99.90;;;;;;4902748;29;20052;-89
2021/01/05 00:49:17;;;;;;;37.10;17.43;;;-1.10;99.90;;;;;;4923723;29;20031;-90
2021/01/05 00:51:43;;;;;;;32.17;12.47;;;-1.10;99.90;;;;;;4909771;29;20616;-89
2021/01/05 00:54:13;;;;;;;35.23;16.33;;;-1.20;99.90;;;;;;4911489;29;20024;-91
2021/01/05 00:56:40;;;;;;;43.60;17.93;;;-1.20;99.90;;;;;;4910865;29;20060;-89
2021/01/05 00:59:21;;;;;;;37.47;16.70;;;-1.20;99.90;;;;;;4909656;29;20028;-87
2021/01/05 01:01:47;;;;;;;37.73;15.60;;;-1.30;99.90;;;;;;4907612;29;20116;-87
2021/01/05 01:04:12;;;;;;;29.53;10.87;;;-1.20;99.90;;;;;;4918686;29;20057;-87
2021/01/05 01:06:38;;;;;;;40.63;16.23;;;-1.20;99.90;;;;;;4901705;29;20032;-86
2021/01/05 01:09:03;;;;;;;46.67;19.87;;;-1.30;99.90;;;;;;4909381;29;20483;-86
2021/01/05 01:11:29;;;;;;;44.70;18.77;;;-1.20;99.90;;;;;;4893471;29;20091;-85
2021/01/05 01:13:55;;;;;;;46.33;19.87;;;-1.20;99.90;;;;;;4900291;29;20163;-86
2021/01/05 01:16:20;;;;;;;41.73;17.67;;;-1.10;99.90;;;;;;4905350;29;20047;-85
2021/01/05 01:18:46;;;;;;;41.47;17.90;;;-1.10;99.90;;;;;;4900474;29;20033;-86
2021/01/05 01:21:11;;;;;;;39.27;17.50;;;-1.10;99.90;;;;;;4906764;29;20067;-88
2021/01/05 01:23:39;;;;;;;41.87;17.43;;;-1.10;99.90;;;;;;4903273;29;20043;-86
2021/01/05 01:26:04;;;;;;;44.13;17.87;;;-1.10;99.90;;;;;;4899109;29;20043;-86
2021/01/05 01:28:30;;;;;;;43.63;18.63;;;-1.10;99.90;;;;;;4901316;29;20032;-87
2021/01/05 01:30:56;;;;;;;41.37;15.93;;;-1.10;99.90;;;;;;4900655;29;20484;-85
2021/01/05 01:33:21;;;;;;;43.90;18.73;;;-1.10;99.90;;;;;;4904062;29;20087;-85
2021/01/05 01:35:48;;;;;;;41.50;18.60;;;-1.10;99.90;;;;;;4896531;29;20032;-85
2021/01/05 01:38:14;;;;;;;42.00;18.93;;;-1.10;99.90;;;;;;4911849;29;20039;-85
2021/01/05 01:40:42;;;;;;;45.30;19.40;;;-1.10;99.90;;;;;;4918873;29;20127;-87
2021/01/05 01:43:08;;;;;;;45.43;18.07;;;-1.10;99.90;;;;;;4901453;29;20048;-85
2021/01/05 01:49:10;;;;;;;41.60;15.97;;;-1.20;99.90;;;;;;5262761;23;20067;-87
2021/01/05 01:52:08;;;;;;;47.63;19.43;;;-1.20;99.90;;;;;;4846314;29;20034;-86
2021/01/05 01:55:15;;;;;;;43.63;17.33;;;-1.10;99.90;;;;;;4848090;29;20033;-85
2021/01/05 01:58:02;;;;;;;46.03;18.60;;;-1.10;99.90;;;;;;4812438;29;20055;-88
2021/01/05 02:00:38;;;;;;;44.17;17.93;;;-1.10;99.90;;;;;;4815110;29;20072;-90
2021/01/05 02:03:20;;;;;;;43.70;19.47;;;-1.10;99.90;;;;;;4815013;29;20038;-89
2021/01/05 02:06:18;;;;;;;48.10;17.90;;;-1.10;99.90;;;;;;4812777;29;20062;-91
2021/01/05 02:08:50;;;;;;;49.77;18.83;;;-1.10;99.90;;;;;;4818420;29;20043;-88
2021/01/05 02:11:38;;;;;;;39.77;14.47;;;-1.10;99.90;;;;;;4821890;29;20106;-90
2021/01/05 02:14:19;;;;;;;45.23;17.63;;;-1.10;99.90;;;;;;4811786;29;20057;-91
2021/01/05 02:17:22;;;;;;;49.03;17.50;;;-1.10;99.90;;;;;;4799036;29;20049;-89
2021/01/05 02:19:52;;;;;;;47.37;19.23;;;-1.20;99.90;;;;;;4803438;29;20028;-89
2021/01/05 02:22:28;;;;;;;43.80;17.87;;;-1.10;99.90;;;;;;4826489;29;20148;-90
2021/01/05 02:25:10;;;;;;;44.57;17.57;;;-1.10;99.90;;;;;;4856455;29;20093;-90
2021/01/05 02:27:49;;;;;;;39.27;14.03;;;-1.20;99.90;;;;;;4873082;29;20031;-90
2021/01/05 02:30:21;;;;;;;45.73;17.97;;;-1.30;99.90;;;;;;4939479;29;20039;-87
2021/01/05 02:33:19;;;;;;;45.43;16.50;;;-1.40;99.90;;;;;;4928313;29;20292;-88
2021/01/05 02:36:09;;;;;;;50.60;18.77;;;-1.50;99.90;;;;;;4861751;29;20348;-91
2021/01/05 02:39:19;;;;;;;43.07;16.83;;;-1.50;99.90;;;;;;4868708;29;20042;-88
2021/01/05 02:42:22;;;;;;;45.60;17.97;;;-1.50;99.90;;;;;;4850604;29;20042;-89
2021/01/05 02:45:12;;;;;;;47.17;16.23;;;-1.50;99.90;;;;;;4856644;29;20030;-89
2021/01/05 02:47:49;;;;;;;41.87;16.27;;;-1.50;99.90;;;;;;4856205;29;20064;-91
2021/01/05 02:50:47;;;;;;;41.67;15.17;;;-1.50;99.90;;;;;;4838131;29;20057;-90
2021/01/05 02:53:32;;;;;;;47.37;18.43;;;-1.50;99.90;;;;;;4847851;29;20042;-89
2021/01/05 02:56:33;;;;;;;42.93;16.47;;;-1.50;99.90;;;;;;4862783;29;20037;-90
2021/01/05 02:59:10;;;;;;;44.67;15.93;;;-1.40;99.90;;;;;;4854543;29;20062;-89
2021/01/05 03:02:14;;;;;;;48.37;18.27;;;-1.40;99.90;;;;;;4848565;29;20073;-89
2021/01/05 03:04:40;;;;;;;45.60;18.10;;;-1.40;99.90;;;;;;4863097;29;20376;-91
2021/01/05 03:07:15;;;;;;;46.70;18.60;;;-1.40;99.90;;;;;;4856990;29;20081;-91
2021/01/05 03:10:02;;;;;;;42.73;18.53;;;-1.30;99.90;;;;;;4851499;29;20193;-90
2021/01/05 03:12:44;;;;;;;45.90;17.47;;;-1.30;99.90;;;;;;4879190;29;20488;-90
2021/01/05 03:15:44;;;;;;;45.47;19.07;;;-1.30;99.90;;;;;;4927334;29;20032;-89
2021/01/05 03:18:40;;;;;;;40.90;17.90;;;-1.40;99.90;;;;;;4916958;29;20047;-91
2021/01/05 03:21:21;;;;;;;46.10;17.30;;;-1.40;99.90;;;;;;4930829;29;20378;-87
2021/01/05 03:23:50;;;;;;;45.03;17.83;;;-1.40;99.90;;;;;;4910857;29;20598;-88
2021/01/05 03:26:18;;;;;;;46.83;18.35;;;-1.40;99.90;;;;;;4915487;29;20123;-88
2021/01/05 03:28:44;;;;;;;43.93;16.63;;;-1.40;99.90;;;;;;4930532;29;20036;-90
2021/01/05 03:31:31;;;;;;;40.53;16.73;;;-1.30;99.90;;;;;;4915339;29;20041;-90
2021/01/05 03:34:00;;;;;;;42.07;17.10;;;-1.40;99.90;;;;;;4914038;29;20317;-91
2021/01/05 03:36:26;;;;;;;;;;;-1.30;99.90;;;;;;4909822;29;20107;-92
2021/01/05 03:38:52;;;;;;;43.67;16.67;;;-1.30;99.90;;;;;;4924312;29;20063;-90
2021/01/05 03:41:20;;;;;;;44.70;17.90;;;-1.30;99.90;;;;;;4917455;29;20067;-90
2021/01/05 03:43:46;;;;;;;45.37;18.20;;;-1.30;99.90;;;;;;4937174;29;20047;-91
2021/01/05 03:46:13;;;;;;;42.30;17.00;;;-1.30;99.90;;;;;;4909408;29;20095;-88
2021/01/05 03:48:39;;;;;;;40.23;14.50;;;-1.50;99.90;;;;;;4922515;29;20042;-88
2021/01/05 03:51:05;;;;;;;37.20;13.27;;;-1.50;99.90;;;;;;4935711;29;20020;-89
2021/01/05 03:53:32;;;;;;;39.10;15.30;;;-1.60;99.90;;;;;;4926072;29;20046;-91
2021/01/05 03:55:58;;;;;;;43.90;15.80;;;-1.70;99.90;;;;;;4920391;29;20415;-91
2021/01/05 03:58:23;;;;;;;45.10;17.07;;;-1.60;99.90;;;;;;4917041;29;20070;-89
2021/01/05 04:00:49;;;;;;;50.17;19.17;;;-1.60;99.90;;;;;;4931282;29;20071;-91
2021/01/05 04:03:15;;;;;;;47.93;17.03;;;-1.60;99.90;;;;;;4912289;29;20042;-89
2021/01/05 04:05:42;;;;;;;47.27;17.97;;;-1.60;99.90;;;;;;4934479;29;20028;-88
2021/01/05 04:08:09;;;;;;;43.60;16.53;;;-1.50;99.90;;;;;;4924742;29;20095;-90
2021/01/05 04:10:34;;;;;;;46.20;18.37;;;-1.60;99.90;;;;;;4924015;29;20110;-88
2021/01/05 04:13:00;;;;;;;49.73;18.73;;;-1.50;99.90;;;;;;4912219;29;20043;-91
2021/01/05 04:15:29;;;;;;;47.23;17.93;;;-1.40;99.90;;;;;;4917478;29;20042;-91
2021/01/05 04:17:57;;;;;;;44.10;16.97;;;-1.40;99.90;;;;;;4923529;29;20114;-89
2021/01/05 04:20:24;;;;;;;42.33;17.23;;;-1.40;99.90;;;;;;4917341;29;20032;-86
2021/01/05 04:22:51;;;;;;;39.00;16.13;;;-1.30;99.90;;;;;;4916401;29;20047;-89
2021/01/05 04:25:19;;;;;;;39.70;17.20;;;-1.40;99.90;;;;;;4919755;29;20034;-88
2021/01/05 04:27:46;;;;;;;40.17;16.93;;;-1.40;99.90;;;;;;4928811;29;20103;-89
2021/01/05 04:30:31;;;;;;;43.10;16.80;;;-1.40;99.90;;;;;;4914844;29;20150;-90
2021/01/05 04:33:02;;;;;;;40.07;16.87;;;-1.40;99.90;;;;;;4926056;29;20061;-89
2021/01/05 04:35:31;;;;;;;42.73;17.67;;;-1.40;99.90;;;;;;4932060;29;20039;-89
2021/01/05 04:37:58;;;;;;;43.70;17.67;;;-1.40;99.90;;;;;;4913111;29;20047;-87
2021/01/05 04:40:29;;;;;;;41.83;15.63;;;-1.40;99.90;;;;;;4936229;28;20105;-89
2021/01/05 04:43:22;;;;;;;45.17;17.00;;;-1.40;99.90;;;;;;4912935;29;20044;-88
2021/01/05 04:46:08;;;;;;;40.33;16.80;;;-1.40;99.90;;;;;;4910102;29;20028;-87
2021/01/05 04:49:01;;;;;;;43.33;17.30;;;-1.30;99.90;;;;;;4913096;29;20074;-87
2021/01/05 04:51:28;;;;;;;39.53;16.30;;;-1.30;99.90;;;;;;4917651;29;20050;-89
2021/01/05 04:54:29;;;;;;;45.43;18.50;;;-1.30;99.90;;;;;;4927468;29;20016;-88
2021/01/05 04:57:18;;;;;;;45.20;18.17;;;-1.30;99.90;;;;;;4930861;29;20008;-89
2021/01/05 04:59:53;;;;;;;41.35;16.52;;;-1.40;99.90;;;;;;4912936;29;20036;-88
2021/01/05 05:02:27;;;;;;;43.30;16.60;;;-1.50;99.90;;;;;;4915916;29;20072;-89
2021/01/05 05:05:02;;;;;;;47.17;18.00;;;-1.40;99.90;;;;;;4913898;29;20043;-89
2021/01/05 05:07:31;;;;;;;43.13;17.30;;;-1.40;99.90;;;;;;4915375;29;20024;-88
2021/01/05 05:10:03;;;;;;;43.00;16.13;;;-1.40;99.90;;;;;;4923175;29;20056;-87
2021/01/05 05:12:43;;;;;;;42.20;15.87;;;-1.50;99.90;;;;;;4903142;29;20039;-88
2021/01/05 05:15:24;;;;;;;43.23;17.47;;;-1.50;99.90;;;;;;4924294;29;20102;-88
2021/01/05 05:18:19;;;;;;;43.30;17.17;;;-1.50;99.90;;;;;;4911094;29;20039;-91
2021/01/05 05:20:59;;;;;;;44.00;17.03;;;-1.50;99.90;;;;;;4921980;29;20460;-89
2021/01/05 05:23:45;;;;;;;45.47;16.67;;;-1.50;99.90;;;;;;4915898;29;20503;-89
2021/01/05 05:26:19;;;;;;;40.10;16.63;;;-1.50;99.90;;;;;;4907619;29;20039;-88
2021/01/05 05:29:23;;;;;;;43.57;16.60;;;-1.50;99.90;;;;;;4914688;29;20062;-89
2021/01/05 05:31:50;;;;;;;36.30;13.40;;;-1.50;99.90;;;;;;4908347;29;20038;-89
2021/01/05 05:34:36;;;;;;;41.97;14.27;;;-1.50;99.90;;;;;;4928610;29;20035;-89
2021/01/05 05:37:33;;;;;;;42.53;15.13;;;-1.50;99.90;;;;;;4913103;29;20051;-90
2021/01/05 05:40:09;;;;;;;42.20;15.23;;;-1.50;99.90;;;;;;4907087;29;20068;-88
2021/01/05 05:42:45;;;;;;;41.93;15.90;;;-1.50;99.90;;;;;;4915303;29;20056;-88
2021/01/05 05:45:12;;;;;;;41.97;15.33;;;-1.40;99.90;;;;;;4917561;29;20032;-89
2021/01/05 05:47:42;;;;;;;41.33;16.37;;;-1.40;99.90;;;;;;4927280;29;20404;-88
2021/01/05 05:50:22;;;;;;;39.05;15.95;;;-1.50;99.90;;;;;;4927305;29;20051;-88
2021/01/05 05:53:13;;;;;;;44.57;16.20;;;-1.40;99.90;;;;;;4909529;29;20032;-88
2021/01/05 05:55:57;;;;;;;39.13;14.97;;;-1.40;99.90;;;;;;4929405;29;20435;-89
2021/01/05 05:58:27;;;;;;;34.27;14.37;;;-1.40;99.90;;;;;;4956392;28;20019;-90
2021/01/05 06:00:56;;;;;;;36.47;14.07;;;-1.40;99.90;;;;;;4928680;29;20016;-88
2021/01/05 06:03:25;;;;;;;45.13;16.55;;;-1.50;99.90;;;;;;4932816;29;20019;-92
2021/01/05 06:05:51;;;;;;;41.60;16.23;;;-1.50;99.90;;;;;;4886841;29;20036;-89
2021/01/05 06:08:18;;;;;;;38.60;15.67;;;-1.50;99.90;;;;;;4932509;29;20035;-88
2021/01/05 06:10:46;;;;;;;38.53;14.47;;;-1.50;99.90;;;;;;4913398;29;20044;-88
2021/01/05 06:13:13;;;;;;;39.07;14.07;;;-1.50;99.90;;;;;;4904716;29;20058;-89
2021/01/05 06:15:39;;;;;;;35.43;13.93;;;-1.50;99.90;;;;;;4933333;29;20064;-89
2021/01/05 06:18:08;;;;;;;38.83;15.50;;;-1.50;99.90;;;;;;4906605;29;20026;-88
2021/01/05 06:20:34;;;;;;;38.95;14.90;;;-1.50;99.90;;;;;;4932117;29;20036;-88
2021/01/05 06:22:59;;;;;;;43.70;15.87;;;-1.50;99.90;;;;;;4929358;29;20036;-91
2021/01/05 06:25:26;;;;;;;39.33;15.43;;;-1.50;99.90;;;;;;4927950;29;20044;-89
2021/01/05 06:27:52;;;;;;;39.17;15.10;;;-1.60;99.90;;;;;;4912506;29;20107;-89
2021/01/05 06:30:18;;;;;;;44.13;15.87;;;-1.60;99.90;;;;;;4913393;29;20023;-89
2021/01/05 06:32:45;;;;;;;45.80;16.80;;;-1.50;99.90;;;;;;4918138;29;20448;-88
2021/01/05 06:35:12;;;;;;;42.57;16.40;;;-1.50;99.90;;;;;;4918792;29;20051;-88
2021/01/05 06:37:39;;;;;;;45.30;17.10;;;-1.50;99.90;;;;;;4913768;29;20036;-90
2021/01/05 06:40:06;;;;;;;43.60;15.67;;;-1.40;99.90;;;;;;4923604;29;20032;-89
2021/01/05 06:42:32;;;;;;;42.90;17.10;;;-1.40;99.90;;;;;;4927957;29;20051;-90
2021/01/05 06:44:58;;;;;;;42.87;17.47;;;-1.40;99.90;;;;;;4937129;29;20030;-88
2021/01/05 06:47:25;;;;;;;43.57;18.40;;;-1.50;99.90;;;;;;4926482;29;20036;-91
2021/01/05 06:49:51;;;;;;;50.50;18.07;;;-1.50;99.90;;;;;;4905478;29;20060;-88
2021/01/05 06:52:17;;;;;;;44.20;16.23;;;-1.50;99.90;;;;;;4921792;29;20452;-89
2021/01/05 06:54:42;;;;;;;41.37;17.00;;;-1.50;99.90;;;;;;4931796;29;20020;-87
2021/01/05 06:57:08;;;;;;;42.90;16.90;;;-1.40;99.90;;;;;;4933483;29;20055;-89
2021/01/05 06:59:34;;;;;;;44.43;17.87;;;-1.40;99.90;;;;;;4922942;29;20027;-86
2021/01/05 07:02:04;;;;;;;41.83;16.37;;;-1.40;99.90;;;;;;4916580;29;20038;-88
2021/01/05 07:04:36;;;;;;;49.87;18.43;;;-1.40;99.90;;;;;;4916717;29;20032;-86
2021/01/05 07:07:03;;;;;;;43.57;17.63;;;-1.40;99.90;;;;;;4917917;29;20114;-83
2021/01/05 07:09:30;;;;;;;44.30;17.47;;;-1.50;99.90;;;;;;4934043;29;20020;-86
2021/01/05 07:11:56;;;;;;;42.43;17.03;;;-1.40;99.90;;;;;;4934840;29;20031;-83
2021/01/05 07:14:23;;;;;;;44.20;16.60;;;-1.40;99.90;;;;;;4952229;29;20044;-84
2021/01/05 07:16:49;;;;;;;45.67;17.23;;;-1.40;99.90;;;;;;4936475;29;20071;-84
2021/01/05 07:19:16;;;;;;;45.10;17.30;;;-1.40;99.90;;;;;;4934921;29;20036;-86
2021/01/05 07:21:42;;;;;;;44.73;14.77;;;-1.30;99.90;;;;;;4931280;28;20055;-86
2021/01/05 07:24:08;;;;;;;38.17;15.20;;;-1.30;99.90;;;;;;4926812;29;20035;-84
2021/01/05 07:26:35;;;;;;;39.53;16.40;;;-1.30;99.90;;;;;;4926552;29;20031;-86
2021/01/05 07:29:01;;;;;;;39.03;15.00;;;-1.20;99.90;;;;;;4906009;29;20044;-84
2021/01/05 07:31:27;;;;;;;40.67;15.83;;;-1.20;99.90;;;;;;4909158;29;20551;-85
2021/01/05 07:33:53;;;;;;;43.27;16.63;;;-1.20;99.90;;;;;;4911079;29;20400;-85
2021/01/05 07:36:26;;;;;;;39.37;15.93;;;-1.20;99.90;;;;;;4911367;29;20032;-86
2021/01/05 07:38:52;;;;;;;43.90;16.70;;;-1.20;99.90;;;;;;4913129;29;20027;-85
2021/01/05 07:41:19;;;;;;;43.47;16.90;;;-1.20;99.90;;;;;;4914753;29;20050;-86
2021/01/05 07:43:44;;;;;;;39.27;15.90;;;-1.20;99.90;;;;;;4927723;29;20027;-86
2021/01/05 07:46:10;;;;;;;48.97;17.10;;;-1.30;99.90;;;;;;4931568;29;20068;-87
2021/01/05 07:48:36;;;;;;;46.17;17.20;;;-1.30;99.90;;;;;;4921348;29;20159;-86
2021/01/05 07:51:04;;;;;;;49.10;18.20;;;-1.30;99.90;;;;;;4913823;29;20091;-87
2021/01/05 07:53:30;;;;;;;43.57;17.70;;;-1.30;99.90;;;;;;4926687;29;20130;-86
2021/01/05 07:55:55;;;;;;;46.50;17.73;;;-1.30;99.90;;;;;;4935756;29;20055;-87
2021/01/05 07:58:22;;;;;;;45.73;17.87;;;-1.30;99.90;;;;;;4915237;29;20076;-87
2021/01/05 08:00:50;;;;;;;44.13;16.97;;;-1.30;99.90;;;;;;4915363;29;20024;-89
2021/01/05 08:03:16;;;;;;;47.07;17.60;;;-1.20;99.90;;;;;;4915699;29;20043;-88
2021/01/05 08:05:42;;;;;;;49.17;19.50;;;-1.20;99.90;;;;;;4917461;29;20035;-87
2021/01/05 08:08:08;;;;;;;47.60;18.70;;;-1.20;99.90;;;;;;4919761;29;20039;-85
2021/01/05 08:10:37;;;;;;;45.60;17.33;;;-1.20;99.90;;;;;;4910604;29;20035;-88
2021/01/05 08:13:06;;;;;;;45.47;18.30;;;-1.20;99.90;;;;;;4913478;29;20034;-84
2021/01/05 08:15:32;;;;;;;49.22;18.40;;;-1.20;99.90;;;;;;4910457;29;20023;-82
2021/01/05 08:17:59;;;;;;;43.57;17.33;;;-1.20;99.90;;;;;;4915578;29;20051;-81
2021/01/05 08:20:28;;;;;;;48.33;18.43;;;-1.20;99.90;;;;;;4925249;29;20131;-82
2021/01/05 08:22:54;;;;;;;47.10;18.00;;;-1.20;99.90;;;;;;4907108;29;20039;-80
2021/01/05 08:25:22;;;;;;;42.07;17.77;;;-1.10;99.90;;;;;;4922043;29;20103;-81
2021/01/05 08:27:49;;;;;;;47.93;17.03;;;-1.10;99.90;;;;;;4918941;29;20039;-80
2021/01/05 08:30:23;;;;;;;43.90;17.10;;;-1.20;99.90;;;;;;4926123;29;20017;-81
2021/01/05 08:32:51;;;;;;;39.50;14.63;;;-1.20;99.90;;;;;;4922071;29;20067;-79
2021/01/05 08:35:19;;;;;;;45.77;17.53;;;-1.20;99.90;;;;;;4931490;29;20024;-79
2021/01/05 08:37:45;;;;;;;44.33;16.97;;;-1.20;99.90;;;;;;4935675;29;20035;-81
2021/01/05 08:40:15;;;;;;;41.27;15.17;;;-1.20;99.90;;;;;;4930516;28;20039;-80
2021/01/05 08:42:40;;;;;;;;;;;-1.20;99.90;;;;;;4923055;29;20135;-80
2021/01/05 08:45:07;;;;;;;37.90;13.80;;;-1.20;99.90;;;;;;4905752;29;20339;-81
2021/01/05 08:47:33;;;;;;;38.77;15.67;;;-1.20;99.90;;;;;;4927227;29;20031;-81
2021/01/05 08:49:59;;;;;;;41.13;14.90;;;-1.20;99.90;;;;;;4923826;29;20384;-81
2021/01/05 08:52:25;;;;;;;47.37;18.53;;;-1.30;99.90;;;;;;4906814;29;20492;-82
2021/01/05 08:54:51;;;;;;;38.87;16.47;;;-1.30;99.90;;;;;;4919244;29;20075;-82
2021/01/05 08:57:17;;;;;;;45.30;16.53;;;-1.20;99.90;;;;;;4925370;29;20440;-82
2021/01/05 08:59:46;;;;;;;42.67;16.80;;;-1.10;99.90;;;;;;4911804;29;20036;-88
2021/01/05 09:02:12;;;;;;;45.05;17.45;;;-1.10;99.90;;;;;;4904154;29;20492;-87
2021/01/05 09:04:38;;;;;;;42.97;15.90;;;-1.10;99.90;;;;;;4904093;29;20081;-85
2021/01/05 09:07:05;;;;;;;45.17;17.57;;;-1.00;99.90;;;;;;4906397;29;20047;-84
2021/01/05 09:09:31;;;;;;;43.30;16.03;;;-0.90;99.90;;;;;;4921705;29;20402;-85
2021/01/05 09:12:01;;;;;;;46.70;17.20;;;-0.90;99.90;;;;;;4925675;29;20035;-83
2021/01/05 09:14:27;;;;;;;38.87;15.53;;;-0.90;99.90;;;;;;4920344;29;20511;-84
2021/01/05 09:16:58;;;;;;;44.00;17.23;;;-0.90;99.90;;;;;;4912401;29;20036;-86
2021/01/05 09:19:24;;;;;;;45.40;17.43;;;-0.80;99.90;;;;;;4900235;29;20140;-86
2021/01/05 09:21:50;;;;;;;41.83;16.67;;;-0.80;99.90;;;;;;4930418;29;20064;-84
2021/01/05 09:24:16;;;;;;;43.50;15.57;;;-0.70;99.90;;;;;;4935060;29;20032;-81
2021/01/05 09:27:32;;;;;;;40.23;15.77;;;-0.70;99.90;;;;;;4922065;29;20032;-88
2021/01/05 09:29:57;;;;;;;42.13;15.93;;;-0.70;99.90;;;;;;4920439;29;20035;-83
2021/01/05 09:32:24;;;;;;;39.17;14.57;;;-0.80;99.90;;;;;;4918796;29;20036;-84
2021/01/05 09:34:52;;;;;;;44.33;17.33;;;-0.90;99.90;;;;;;4910219;29;20475;-89
2021/01/05 09:37:18;;;;;;;44.67;17.23;;;-1.00;99.90;;;;;;4907644;29;20063;-87
2021/01/05 09:39:43;;;;;;;52.07;19.60;;;-0.90;99.90;;;;;;4918544;29;20056;-87
2021/01/05 09:42:22;;;;;;;44.60;18.27;;;-0.90;99.90;;;;;;4914848;29;20075;-84
2021/01/05 09:44:49;;;;;;;47.58;16.80;;;-0.90;99.90;;;;;;4924077;29;20384;-81
2021/01/05 09:47:22;;;;;;;39.27;14.93;;;-0.90;99.90;;;;;;4902300;29;20035;-82
2021/01/05 09:49:50;;;;;;;39.70;15.90;;;-0.80;99.90;;;;;;4920925;29;20048;-86
2021/01/05 09:52:24;;;;;;;45.93;17.40;;;-0.80;99.90;;;;;;4897382;29;20044;-82
2021/01/05 09:54:51;;;;;;;42.43;15.90;;;-0.80;99.90;;;;;;4901454;29;20050;-83
2021/01/05 09:57:18;;;;;;;40.77;16.00;;;-0.70;99.90;;;;;;4930622;29;20036;-80
2021/01/05 09:59:45;;;;;;;45.97;17.37;;;-0.70;99.90;;;;;;4920011;29;20027;-81
2021/01/05 10:02:21;;;;;;;41.90;15.17;;;-0.80;99.90;;;;;;4903339;29;20055;-89
2021/01/05 10:04:46;;;;;;;39.23;14.53;;;-0.80;99.90;;;;;;4904678;29;20411;-86
2021/01/05 10:07:12;;;;;;;38.97;14.60;;;-0.80;99.90;;;;;;4916111;29;20170;-89
2021/01/05 10:09:38;;;;;;;37.23;14.43;;;-0.90;99.90;;;;;;4923250;29;20023;-81
2021/01/05 10:12:13;;;;;;;43.10;16.93;;;-0.80;99.90;;;;;;4919891;29;20131;-82
2021/01/05 10:14:38;;;;;;;37.63;15.57;;;-0.80;99.90;;;;;;4909116;29;20831;-81
2021/01/05 10:17:04;;;;;;;41.37;14.93;;;-0.90;99.90;;;;;;4924622;29;20103;-82
2021/01/05 10:19:30;;;;;;;38.57;15.70;;;-0.80;99.90;;;;;;4923107;29;20035;-82
2021/01/05 10:21:55;;;;;;;39.50;15.00;;;-0.80;99.90;;;;;;4900726;29;20044;-83
2021/01/05 10:24:21;;;;;;;39.93;14.63;;;-0.90;99.90;;;;;;4908767;29;20075;-81
2021/01/05 10:26:55;;;;;;;34.30;12.80;;;-1.00;99.90;;;;;;4905991;29;20036;-81
2021/01/05 10:29:22;;;;;;;38.57;15.33;;;-1.00;99.90;;;;;;4900536;29;20051;-81
2021/01/05 10:31:48;;;;;;;40.50;15.90;;;-0.90;99.90;;;;;;4924246;29;20032;-81
2021/01/05 10:34:18;;;;;;;38.63;15.73;;;-0.80;99.90;;;;;;4922366;29;20023;-82
2021/01/05 10:36:44;;;;;;;40.50;15.87;;;-0.80;99.90;;;;;;4921493;29;20091;-83
2021/01/05 10:39:14;;;;;;;44.20;17.07;;;-0.70;99.90;;;;;;4928801;29;20025;-81
2021/01/05 10:41:43;;;;;;;39.60;14.87;;;-0.60;99.90;;;;;;4925469;29;20046;-82
2021/01/05 10:44:11;;;;;;;44.83;15.97;;;-0.50;99.90;;;;;;4926241;29;20487;-80
2021/01/05 10:46:36;;;;;;;42.47;16.30;;;-0.60;99.90;;;;;;4933949;29;20043;-82
2021/01/05 10:49:02;;;;;;;43.90;16.50;;;-0.60;99.90;;;;;;4945291;28;20056;-84
2021/01/05 10:51:28;;;;;;;39.23;14.33;;;-0.50;99.90;;;;;;4922643;29;20043;-84
2021/01/05 10:59:44;;;;;;;37.50;14.90;;;-0.60;99.90;;;;;;5158074;23;20602;-83
2021/01/05 11:02:10;;;;;;;38.43;14.50;;;-0.70;99.90;;;;;;4889825;29;20132;-83
2021/01/05 11:04:36;;;;;;;42.53;14.87;;;-0.80;99.90;;;;;;4896638;29;20455;-86
2021/01/05 11:07:05;;;;;;;46.17;16.30;;;-0.80;99.90;;;;;;4899047;29;20062;-83
2021/01/05 11:09:30;;;;;;;45.10;16.63;;;-0.80;99.90;;;;;;4896780;29;20039;-80
2021/01/05 11:12:01;;;;;;;41.73;16.27;;;-0.80;99.90;;;;;;4895990;29;20388;-81
2021/01/05 11:14:28;;;;;;;37.73;14.80;;;-0.80;99.90;;;;;;4894387;29;20036;-81
2021/01/05 11:16:54;;;;;;;41.03;14.07;;;-1.00;99.90;;;;;;4913130;29;20043;-82
2021/01/05 11:19:20;;;;;;;42.67;15.57;;;-1.00;99.90;;;;;;4896695;29;20071;-83
2021/01/05 11:21:49;;;;;;;36.83;14.20;;;-1.00;99.90;;;;;;4912647;29;20058;-82
2021/01/05 11:24:15;;;;;;;40.15;15.40;;;-0.90;99.90;;;;;;4918562;29;20357;-85
2021/01/05 11:26:46;;;;;;;44.60;15.97;;;-0.80;99.90;;;;;;4915061;29;20065;-81
2021/01/05 12:20:27;;;;;;;40.50;15.70;;;-0.40;99.90;;;;;;5064931;28;20545;-84
2021/01/05 12:22:53;;;;;;;39.27;14.90;;;-0.40;99.90;;;;;;5050438;28;20026;-86
2021/01/05 12:25:19;;;;;;;40.73;16.27;;;-0.30;99.90;;;;;;5035145;28;20065;-85
2021/01/05 12:27:47;;;;;;;35.23;12.97;;;-0.20;99.90;;;;;;5038165;28;20042;-85
2021/01/05 12:30:14;;;;;;;34.87;12.10;;;-0.20;99.90;;;;;;5029757;28;20056;-87
2021/01/05 12:32:40;;;;;;;36.73;14.47;;;-0.30;99.90;;;;;;5043803;28;20025;-84
2021/01/05 12:35:06;;;;;;;38.47;15.27;;;-0.20;99.90;;;;;;5033871;28;20100;-85
2021/01/05 12:37:32;;;;;;;36.20;14.80;;;-0.20;99.90;;;;;;5027590;28;20034;-84
2021/01/05 12:39:57;;;;;;;38.43;14.13;;;-0.20;99.90;;;;;;5028161;28;20444;-84
2021/01/05 12:42:26;;;;;;;38.70;15.43;;;-0.10;99.90;;;;;;5040287;28;20029;-83
2021/01/05 12:44:54;;;;;;;35.07;14.30;;;-0.10;99.90;;;;;;5044993;28;20018;-84
2021/01/05 12:47:43;;;;;;;;;;;;;;;;;;;;;
2021/01/05 12:50:10;;;;;;;39.43;14.70;;;-0.20;99.90;;;;;;5034730;28;20180;-83
2021/01/05 12:52:36;;;;;;;37.10;14.87;;;-0.20;99.90;;;;;;5024922;28;20025;-83
2021/01/05 12:55:04;;;;;;;37.00;13.67;;;-0.20;99.90;;;;;;5034793;28;20052;-85
2021/01/05 12:57:30;;;;;;;39.97;15.70;;;-0.20;99.90;;;;;;5028780;28;20084;-83
2021/01/05 12:59:55;;;;;;;39.67;13.50;;;-0.40;99.90;;;;;;5030909;28;20061;-83
2021/01/05 13:02:29;;;;;;;41.23;16.43;;;-0.30;99.90;;;;;;5029834;28;20124;-82
2021/01/05 13:04:55;;;;;;;38.90;15.37;;;-0.30;99.90;;;;;;5035443;28;20030;-83
2021/01/05 13:07:23;;;;;;;39.73;16.63;;;-0.20;99.90;;;;;;5035615;28;20126;-84
2021/01/05 13:09:53;;;;;;;41.87;17.23;;;-0.20;99.90;;;;;;5029420;28;20042;-83
2021/01/05 13:12:19;;;;;;;41.47;16.63;;;-0.20;99.90;;;;;;5022730;28;20110;-82
2021/01/05 13:14:44;;;;;;;42.83;16.43;;;-0.10;99.90;;;;;;5037829;28;20449;-83
2021/01/05 13:17:10;;;;;;;40.07;16.13;;;0.00;99.90;;;;;;5029645;28;20060;-82
2021/01/05 13:19:35;;;;;;;37.53;14.67;;;0.00;99.90;;;;;;5024746;28;20064;-86
2021/01/05 13:22:01;;;;;;;40.83;16.40;;;0.10;99.90;;;;;;5029400;28;20032;-83
2021/01/05 13:24:29;;;;;;;38.60;16.63;;;0.00;99.90;;;;;;5026432;28;20511;-83
2021/01/05 13:26:57;;;;;;;42.47;16.60;;;0.10;99.90;;;;;;5026796;28;20092;-85
2021/01/05 13:29:25;;;;;;;39.50;15.00;;;0.10;99.90;;;;;;5032570;28;20102;-84
2021/01/05 13:31:56;;;;;;;37.35;15.38;;;0.10;99.90;;;;;;5010973;28;20044;-83
2021/01/05 13:34:34;;;;;;;41.43;15.80;;;0.20;99.90;;;;;;5034679;28;20112;-87
2021/01/05 13:37:11;;;;;;;39.87;16.57;;;0.20;99.90;;;;;;5027393;28;20030;-92
2021/01/05 13:39:37;;;;;;;37.17;14.67;;;0.20;99.90;;;;;;5005107;28;20034;-87
2021/01/05 13:42:12;;;;;;;39.27;15.87;;;0.10;99.90;;;;;;5029122;28;20273;-85
2021/01/05 13:44:38;;;;;;;39.30;16.13;;;0.10;99.90;;;;;;5021029;28;20064;-83
2021/01/05 13:47:06;;;;;;;38.83;16.50;;;0.00;99.90;;;;;;5018477;28;20045;-89